Time;durP1;ratioP1;P1;durP2;ratioP2;P2;SDS_P1;SDS_P2;PMS_P1;PMS_P2;Temp;Humidity;BMP_temperature;BMP_pressure;BME280_temperature;BME280_humidity;BME280_pressure;Samples;Min_cycle;Max_cycle;Signal;HPM_P1;HPM_P2
2023/05/10 00:02:10;;;;;;;3.60;3.40;;;16.80;99.90;;;;;;5012164;28;20489;-79
2023/05/10 00:04:35;;;;;;;3.50;3.40;;;16.80;99.90;;;;;;5011292;28;20183;-79
2023/05/10 00:07:01;;;;;;;3.40;3.30;;;16.80;99.90;;;;;;5011436;28;20398;-79
2023/05/10 00:09:27;;;;;;;3.40;3.20;;;16.80;99.90;;;;;;5012344;28;20190;-79
2023/05/10 00:11:53;;;;;;;3.33;3.23;;;16.80;99.90;;;;;;5011395;28;20616;-79
2023/05/10 00:14:19;;;;;;;3.40;3.30;;;16.70;99.90;;;;;;5011981;28;20414;-79
2023/05/10 00:16:44;;;;;;;3.93;3.73;;;16.70;99.90;;;;;;5010149;28;20187;-78
2023/05/10 00:19:10;;;;;;;3.20;3.10;;;16.70;99.90;;;;;;5011054;28;20469;-78
2023/05/10 00:21:36;;;;;;;3.20;3.10;;;16.70;99.90;;;;;;5011225;28;20179;-79
2023/05/10 00:24:02;;;;;;;3.37;3.27;;;16.70;99.90;;;;;;5012418;28;20313;-79
2023/05/10 00:26:28;;;;;;;3.63;3.53;;;16.70;99.90;;;;;;5014746;28;20183;-79
2023/05/10 00:28:53;;;;;;;4.10;4.00;;;16.70;99.90;;;;;;5014755;28;20405;-78
2023/05/10 00:31:19;;;;;;;3.90;3.70;;;16.70;99.90;;;;;;5015790;28;20237;-79
2023/05/10 00:33:45;;;;;;;3.43;3.33;;;16.70;99.90;;;;;;5014034;28;20179;-78
2023/05/10 00:36:11;;;;;;;7.73;3.40;;;16.70;99.90;;;;;;5013059;28;20330;-79
2023/05/10 00:38:37;;;;;;;3.53;3.33;;;16.70;99.90;;;;;;5015597;28;20326;-79
2023/05/10 00:41:03;;;;;;;3.53;3.33;;;16.60;99.90;;;;;;5013776;28;20520;-79
2023/05/10 00:43:30;;;;;;;4.53;3.67;;;16.60;99.90;;;;;;5015676;28;20840;-78
2023/05/10 00:45:56;;;;;;;3.83;3.63;;;16.60;99.90;;;;;;5014457;28;20425;-78
2023/05/10 00:48:22;;;;;;;4.20;4.00;;;16.60;99.90;;;;;;5013300;28;20793;-79
2023/05/10 00:50:48;;;;;;;4.20;4.00;;;16.60;99.90;;;;;;5013922;28;20469;-77
2023/05/10 00:53:14;;;;;;;4.00;3.90;;;16.70;99.90;;;;;;5015382;28;20406;-79
2023/05/10 00:55:40;;;;;;;4.13;3.93;;;16.60;99.90;;;;;;5008169;28;20191;-79
2023/05/10 00:58:06;;;;;;;4.07;3.77;;;16.60;99.90;;;;;;4994757;28;20652;-79
2023/05/10 01:00:33;;;;;;;3.50;3.30;;;16.60;99.90;;;;;;4995658;28;20211;-79
2023/05/10 01:02:59;;;;;;;3.83;3.63;;;16.60;99.90;;;;;;4994880;28;20411;-79
2023/05/10 01:05:27;;;;;;;4.20;3.90;;;16.60;99.90;;;;;;4995423;28;20501;-79
2023/05/10 01:07:53;;;;;;;4.20;4.00;;;16.60;99.90;;;;;;5009415;28;20964;-79
2023/05/10 01:10:19;;;;;;;4.20;4.00;;;16.60;99.90;;;;;;5013983;28;20418;-78
2023/05/10 01:12:47;;;;;;;4.23;4.03;;;16.60;99.90;;;;;;5009595;28;20449;-78
2023/05/10 01:15:14;;;;;;;4.83;4.53;;;16.60;99.90;;;;;;5011967;28;20464;-79
2023/05/10 01:17:42;;;;;;;4.93;4.53;;;16.60;99.90;;;;;;5012910;28;20437;-79
2023/05/10 01:20:10;;;;;;;5.00;4.80;;;16.60;99.90;;;;;;5013846;28;20538;-79
2023/05/10 01:22:57;;;;;;;5.10;4.80;;;16.60;99.90;;;;;;5013481;28;20422;-79
2023/05/10 01:25:50;;;;;;;5.43;5.03;;;16.50;99.90;;;;;;5012378;28;20800;-79
2023/05/10 01:28:38;;;;;;;5.37;5.07;;;16.50;99.90;;;;;;5014753;28;20402;-79
2023/05/10 01:31:09;;;;;;;5.33;5.03;;;16.50;99.90;;;;;;5012742;28;20442;-78
2023/05/10 01:34:01;;;;;;;5.87;5.57;;;16.50;99.90;;;;;;5014355;28;20432;-78
2023/05/10 01:36:32;;;;;;;5.87;5.57;;;16.50;99.90;;;;;;5012721;28;20433;-78
2023/05/10 01:39:03;;;;;;;5.97;5.57;;;16.50;99.90;;;;;;5013392;28;20398;-78
2023/05/10 01:41:41;;;;;;;5.43;5.03;;;16.40;99.90;;;;;;5013241;28;20434;-79
2023/05/10 01:44:18;;;;;;;5.50;5.10;;;16.50;99.90;;;;;;5010694;28;20535;-79
2023/05/10 01:46:48;;;;;;;5.70;5.30;;;16.50;99.90;;;;;;5014270;28;20439;-79
2023/05/10 01:49:26;;;;;;;7.00;6.60;;;16.50;99.90;;;;;;5012523;28;20402;-79
2023/05/10 01:51:57;;;;;;;5.90;5.50;;;16.50;99.90;;;;;;4998915;28;20548;-78
2023/05/10 01:54:24;;;;;;;6.77;6.27;;;16.50;99.90;;;;;;5012915;28;20430;-79
2023/05/10 01:56:57;;;;;;;6.07;5.67;;;16.50;99.90;;;;;;5011963;28;20952;-78
2023/05/10 01:59:26;;;;;;;6.20;5.80;;;16.50;99.90;;;;;;5014030;28;20442;-79
2023/05/10 02:01:54;;;;;;;6.60;6.10;;;16.50;99.90;;;;;;5013326;28;20473;-78
2023/05/10 02:04:23;;;;;;;5.77;5.47;;;16.50;99.90;;;;;;5013795;28;20403;-79
2023/05/10 02:06:50;;;;;;;5.77;5.47;;;16.50;99.90;;;;;;5012973;28;20433;-78
2023/05/10 02:09:17;;;;;;;6.37;5.87;;;16.50;99.90;;;;;;5013354;28;20413;-79
2023/05/10 02:11:44;;;;;;;5.93;5.53;;;16.50;99.90;;;;;;5012312;28;20464;-79
2023/05/10 02:14:11;;;;;;;6.80;6.30;;;16.50;99.90;;;;;;5012956;28;20408;-79
2023/05/10 02:16:38;;;;;;;6.30;5.87;;;16.50;99.90;;;;;;5012026;28;20514;-78
2023/05/10 02:19:06;;;;;;;6.90;6.50;;;16.40;99.90;;;;;;5012887;28;20878;-78
2023/05/10 02:21:33;;;;;;;6.70;6.20;;;16.40;99.90;;;;;;5012811;28;20480;-79
2023/05/10 02:24:00;;;;;;;6.50;6.07;;;16.50;99.90;;;;;;5011887;28;20431;-79
2023/05/10 02:26:27;;;;;;;6.80;6.40;;;16.50;99.90;;;;;;5012072;28;20491;-79
2023/05/10 02:28:54;;;;;;;6.60;6.17;;;16.50;99.90;;;;;;5010835;28;20438;-78
2023/05/10 02:31:21;;;;;;;7.63;7.13;;;16.40;99.90;;;;;;5013881;28;20414;-79
2023/05/10 02:33:48;;;;;;;6.70;6.30;;;16.50;99.90;;;;;;5013651;28;20423;-79
2023/05/10 02:36:16;;;;;;;7.27;6.83;;;16.40;99.90;;;;;;5012834;28;20897;-79
2023/05/10 02:38:43;;;;;;;6.57;6.17;;;16.50;99.90;;;;;;5013735;28;20464;-79
2023/05/10 02:41:11;;;;;;;7.07;6.60;;;16.50;99.90;;;;;;5010930;28;20576;-79
2023/05/10 02:43:39;;;;;;;7.30;6.90;;;16.40;99.90;;;;;;5013434;28;20402;-78
2023/05/10 02:46:05;;;;;;;6.80;6.40;;;16.40;99.90;;;;;;5012070;28;20426;-79
2023/05/10 02:48:31;;;;;;;7.07;6.67;;;16.40;99.90;;;;;;5013371;28;20752;-79
2023/05/10 02:51:03;;;;;;;6.70;6.23;;;16.40;99.90;;;;;;5011546;28;20222;-79
2023/05/10 02:53:33;;;;;;;6.60;6.00;;;16.40;99.90;;;;;;5013408;28;20613;-80
2023/05/10 02:56:09;;;;;;;6.77;6.27;;;16.40;99.90;;;;;;5011531;28;20783;-79
2023/05/10 02:58:35;;;;;;;6.87;6.37;;;16.40;99.90;;;;;;5013706;28;20446;-79
2023/05/10 03:01:01;;;;;;;7.27;6.77;;;16.30;99.90;;;;;;5012375;28;20972;-79
2023/05/10 03:03:26;;;;;;;7.50;7.00;;;16.30;99.90;;;;;;5012523;28;20417;-79
2023/05/10 03:05:55;;;;;;;7.53;7.00;;;16.30;99.90;;;;;;5011185;28;20448;-80
2023/05/10 03:08:23;;;;;;;7.43;6.93;;;16.30;99.90;;;;;;5012429;28;20278;-79
2023/05/10 03:11:13;;;;;;;8.00;7.40;;;16.30;99.90;;;;;;5011006;28;20430;-78
2023/05/10 03:13:54;;;;;;;7.90;7.37;;;16.30;99.90;;;;;;5011700;28;20407;-77
2023/05/10 03:16:28;;;;;;;7.40;6.90;;;16.30;99.90;;;;;;5012170;28;20413;-78
2023/05/10 03:19:01;;;;;;;7.53;7.03;;;16.20;99.90;;;;;;5027599;28;20409;-81
2023/05/10 03:21:29;;;;;;;13.30;8.40;;;16.20;99.90;;;;;;5013059;28;20412;-78
2023/05/10 03:24:11;;;;;;;8.07;7.40;;;16.20;99.90;;;;;;5012159;28;20496;-81
2023/05/10 03:26:38;;;;;;;8.30;7.70;;;16.20;99.90;;;;;;5012753;28;20461;-78
2023/05/10 03:29:06;;;;;;;8.60;7.90;;;16.20;99.90;;;;;;5011625;28;20410;-79
2023/05/10 03:31:32;;;;;;;8.27;7.67;;;16.20;99.90;;;;;;5011989;28;20948;-78
2023/05/10 03:33:58;;;;;;;7.87;7.13;;;16.20;99.90;;;;;;5011487;28;20425;-81
2023/05/10 03:36:23;;;;;;;8.50;7.80;;;16.20;99.90;;;;;;5010072;28;20447;-78
2023/05/10 03:38:49;;;;;;;8.30;7.60;;;16.20;99.90;;;;;;5012251;28;20217;-78
2023/05/10 03:41:15;;;;;;;9.70;8.83;;;16.20;99.90;;;;;;5009842;28;20431;-77
2023/05/10 03:43:41;;;;;;;9.63;8.73;;;16.20;99.90;;;;;;5012428;28;20675;-77
2023/05/10 03:46:07;;;;;;;8.80;8.17;;;16.20;99.90;;;;;;5011565;28;20175;-77
2023/05/10 03:48:33;;;;;;;9.33;8.53;;;16.20;99.90;;;;;;5011985;28;20500;-77
2023/05/10 03:50:58;;;;;;;8.97;8.20;;;16.20;99.90;;;;;;5010049;28;20218;-79
2023/05/10 03:53:25;;;;;;;9.03;8.10;;;16.20;99.90;;;;;;5012284;28;20390;-77
2023/05/10 03:55:50;;;;;;;8.50;7.80;;;16.20;99.90;;;;;;5011564;28;20261;-77
2023/05/10 03:58:16;;;;;;;9.73;8.83;;;16.20;99.90;;;;;;5011388;28;20553;-77
2023/05/10 04:00:44;;;;;;;9.27;8.43;;;16.20;99.90;;;;;;5015405;28;20654;-77
2023/05/10 04:03:11;;;;;;;9.43;8.63;;;16.20;99.90;;;;;;5015247;28;20233;-77
2023/05/10 04:05:37;;;;;;;8.77;7.97;;;16.20;99.90;;;;;;5015999;28;20391;-77
2023/05/10 04:08:03;;;;;;;9.43;8.63;;;16.20;99.90;;;;;;5015180;28;20416;-79
2023/05/10 04:10:29;;;;;;;9.37;8.57;;;16.20;99.90;;;;;;5014000;28;20851;-78
2023/05/10 04:12:55;;;;;;;9.53;8.63;;;16.20;99.90;;;;;;5015584;28;20445;-78
2023/05/10 04:15:21;;;;;;;10.23;9.33;;;16.20;99.90;;;;;;5013840;28;20193;-78
2023/05/10 04:17:47;;;;;;;10.80;9.90;;;16.20;99.90;;;;;;5014418;28;20425;-77
2023/05/10 04:20:13;;;;;;;9.60;8.70;;;16.20;99.90;;;;;;5014768;28;20948;-78
2023/05/10 04:22:38;;;;;;;9.83;9.00;;;16.20;99.90;;;;;;5014706;28;20181;-77
2023/05/10 04:25:05;;;;;;;10.00;9.10;;;16.20;99.90;;;;;;5014701;28;20414;-78
2023/05/10 04:27:31;;;;;;;10.10;9.20;;;16.20;99.90;;;;;;5013306;28;20183;-78
2023/05/10 04:29:57;;;;;;;9.80;8.90;;;16.20;99.90;;;;;;5014468;28;20521;-80
2023/05/10 04:32:23;;;;;;;9.80;8.83;;;16.20;99.90;;;;;;5014828;28;20631;-78
2023/05/10 04:34:50;;;;;;;9.97;9.10;;;16.20;99.90;;;;;;5015288;28;20410;-77
2023/05/10 04:37:16;;;;;;;12.10;10.80;;;16.20;99.90;;;;;;5014544;28;20401;-78
2023/05/10 04:39:42;;;;;;;9.30;8.40;;;16.30;99.90;;;;;;5014219;28;20454;-78
2023/05/10 04:42:08;;;;;;;9.87;8.97;;;16.20;99.90;;;;;;5011688;28;20440;-78
2023/05/10 04:44:34;;;;;;;9.53;7.83;;;16.30;99.90;;;;;;5013937;28;20174;-78
2023/05/10 04:47:02;;;;;;;9.70;8.80;;;16.20;99.90;;;;;;5007618;28;20432;-78
2023/05/10 04:49:28;;;;;;;9.53;7.73;;;16.20;99.90;;;;;;5014068;28;20244;-78
2023/05/10 04:51:54;;;;;;;11.83;10.73;;;16.30;99.90;;;;;;5014326;28;20929;-77
2023/05/10 04:54:20;;;;;;;11.53;9.17;;;16.30;99.90;;;;;;5014057;28;20468;-80
2023/05/10 04:56:46;;;;;;;12.70;9.30;;;16.30;99.90;;;;;;5014638;28;20182;-78
2023/05/10 04:59:11;;;;;;;11.77;10.57;;;16.30;99.90;;;;;;5014501;28;20580;-77
2023/05/10 05:01:37;;;;;;;10.60;9.60;;;16.30;99.90;;;;;;5009177;28;20187;-81
2023/05/10 05:04:03;;;;;;;10.93;9.83;;;16.30;99.90;;;;;;5012391;28;20194;-77
2023/05/10 05:06:29;;;;;;;11.73;10.40;;;16.30;99.90;;;;;;5013475;28;20733;-78
2023/05/10 05:08:54;;;;;;;12.17;10.87;;;16.20;99.90;;;;;;5013272;28;20505;-80
2023/05/10 05:11:20;;;;;;;11.20;10.10;;;16.30;99.90;;;;;;5012509;28;20175;-79
2023/05/10 05:13:46;;;;;;;13.10;11.80;;;16.20;99.90;;;;;;5013584;28;20688;-78
2023/05/10 05:16:12;;;;;;;11.67;10.47;;;16.30;99.90;;;;;;5013925;28;20422;-77
2023/05/10 05:18:38;;;;;;;12.30;11.03;;;16.20;99.90;;;;;;5014377;28;20273;-79
2023/05/10 05:21:14;;;;;;;13.80;12.10;;;16.20;99.90;;;;;;5012495;28;20271;-74
2023/05/10 05:23:40;;;;;;;14.97;13.37;;;16.20;99.90;;;;;;5013976;28;20444;-75
2023/05/10 05:26:06;;;;;;;14.50;12.80;;;16.20;99.90;;;;;;5010642;28;20932;-75
2023/05/10 05:28:34;;;;;;;16.10;13.03;;;16.30;99.90;;;;;;5014601;28;20198;-75
2023/05/10 05:31:00;;;;;;;18.13;13.97;;;16.40;99.90;;;;;;5012992;28;20187;-75
2023/05/10 05:33:26;;;;;;;19.37;15.40;;;16.50;99.90;;;;;;5013584;28;20410;-75
2023/05/10 05:35:52;;;;;;;16.37;14.07;;;16.60;99.90;;;;;;5014425;28;20433;-75
2023/05/10 05:38:19;;;;;;;17.20;14.23;;;16.70;99.90;;;;;;5013867;28;20820;-75
2023/05/10 05:40:45;;;;;;;15.90;13.87;;;16.80;99.90;;;;;;5014394;28;20446;-75
2023/05/10 05:43:11;;;;;;;17.70;14.73;;;16.90;99.90;;;;;;5013744;28;20206;-75
2023/05/10 05:45:36;;;;;;;15.87;14.17;;;17.00;99.90;;;;;;5014370;28;20469;-75
2023/05/10 05:48:02;;;;;;;16.60;13.60;;;17.10;99.90;;;;;;5013975;28;20246;-75
2023/05/10 05:50:28;;;;;;;16.80;14.67;;;17.20;99.90;;;;;;5004992;28;20628;-76
2023/05/10 05:52:54;;;;;;;23.53;15.13;;;17.20;99.90;;;;;;5010839;28;20480;-76
2023/05/10 05:55:20;;;;;;;22.43;17.17;;;17.30;99.90;;;;;;5011681;28;20270;-76
2023/05/10 05:57:45;;;;;;;20.77;16.00;;;17.40;99.90;;;;;;5012193;28;20201;-75
2023/05/10 06:00:11;;;;;;;19.73;14.63;;;17.50;99.90;;;;;;5013410;28;20215;-75
2023/05/10 06:02:37;;;;;;;17.87;14.90;;;17.50;99.90;;;;;;4998922;28;20216;-75
2023/05/10 06:05:03;;;;;;;20.17;15.87;;;17.50;99.90;;;;;;5010615;28;20530;-75
2023/05/10 06:07:29;;;;;;;20.07;15.67;;;17.50;99.90;;;;;;5012907;28;20178;-76
2023/05/10 06:09:54;;;;;;;18.60;14.80;;;17.60;99.90;;;;;;5012426;28;20992;-77
2023/05/10 06:12:20;;;;;;;18.97;14.73;;;17.60;99.90;;;;;;5013386;28;20167;-77
2023/05/10 06:14:46;;;;;;;19.33;16.00;;;17.60;99.90;;;;;;5013919;28;20171;-76
2023/05/10 06:17:12;;;;;;;18.93;16.30;;;17.60;99.90;;;;;;5013315;28;20210;-80
2023/05/10 06:19:37;;;;;;;22.20;18.30;;;17.70;99.90;;;;;;5013458;28;20205;-81
2023/05/10 06:22:03;;;;;;;19.47;16.17;;;17.70;99.90;;;;;;5006107;28;20246;-75
2023/05/10 06:24:29;;;;;;;19.93;16.73;;;17.80;99.90;;;;;;5010040;28;20734;-77
2023/05/10 06:26:55;;;;;;;24.67;18.37;;;17.80;99.90;;;;;;5013406;28;20882;-82
2023/05/10 06:29:21;;;;;;;20.33;15.90;;;17.70;99.90;;;;;;5012793;28;20531;-79
2023/05/10 06:31:47;;;;;;;23.20;15.50;;;17.60;99.90;;;;;;5013733;28;20221;-79
2023/05/10 06:34:13;;;;;;;22.03;16.17;;;17.60;99.90;;;;;;5013441;28;20225;-78
2023/05/10 06:36:39;;;;;;;20.77;16.70;;;17.50;99.90;;;;;;5013600;28;20398;-79
2023/05/10 06:39:05;;;;;;;18.93;15.43;;;17.40;99.90;;;;;;5012081;28;20889;-75
2023/05/10 06:41:31;;;;;;;23.60;17.00;;;17.30;99.90;;;;;;5009507;28;20187;-79
2023/05/10 06:43:56;;;;;;;20.27;15.97;;;17.20;99.90;;;;;;5004402;28;20430;-78
2023/05/10 06:46:22;;;;;;;24.00;16.50;;;17.20;99.90;;;;;;5011617;28;20183;-77
2023/05/10 06:48:48;;;;;;;24.37;20.10;;;17.10;99.90;;;;;;5013085;28;20171;-81
2023/05/10 06:51:13;;;;;;;23.87;18.40;;;17.00;99.90;;;;;;5012294;28;20230;-79
2023/05/10 06:53:39;;;;;;;26.00;17.87;;;17.00;99.90;;;;;;5012469;28;20178;-80
2023/05/10 06:56:05;;;;;;;26.83;17.97;;;17.00;99.90;;;;;;5012412;28;20651;-79
2023/05/10 06:58:32;;;;;;;19.57;15.17;;;17.10;99.90;;;;;;5012257;28;20221;-79
2023/05/10 07:01:05;;;;;;;19.17;16.97;;;17.10;99.90;;;;;;5011855;28;20952;-82
2023/05/10 07:03:31;;;;;;;23.43;16.83;;;17.10;99.90;;;;;;5012049;28;20501;-81
2023/05/10 07:06:03;;;;;;;19.23;17.10;;;17.10;99.90;;;;;;5012309;28;20410;-81
2023/05/10 07:08:31;;;;;;;20.30;16.20;;;17.10;99.90;;;;;;5012203;28;20415;-81
2023/05/10 07:11:05;;;;;;;20.47;17.07;;;17.20;99.90;;;;;;5011123;28;20840;-82
2023/05/10 07:13:31;;;;;;;18.20;15.17;;;17.30;99.90;;;;;;5011600;28;20190;-82
2023/05/10 07:15:58;;;;;;;20.80;17.63;;;17.40;99.90;;;;;;5009500;28;20418;-81
2023/05/10 07:18:24;;;;;;;16.77;15.00;;;17.40;99.90;;;;;;5001484;28;20557;-81
2023/05/10 07:20:50;;;;;;;18.70;14.60;;;17.40;99.90;;;;;;4992574;28;20462;-82
2023/05/10 07:23:17;;;;;;;20.03;16.20;;;17.30;99.90;;;;;;4991891;28;20411;-81
2023/05/10 07:25:48;;;;;;;22.73;16.10;;;17.40;99.90;;;;;;4992540;28;20191;-82
2023/05/10 07:28:15;;;;;;;20.57;15.20;;;17.40;99.90;;;;;;4991964;28;20430;-80
2023/05/10 07:30:42;;;;;;;19.83;16.00;;;17.40;99.90;;;;;;4992575;28;20415;-80
2023/05/10 07:33:09;;;;;;;19.50;16.13;;;17.40;99.90;;;;;;4996095;28;20414;-77
2023/05/10 07:35:36;;;;;;;19.77;16.90;;;17.40;99.90;;;;;;5014074;28;20788;-81
2023/05/10 07:38:02;;;;;;;20.10;17.43;;;17.40;99.90;;;;;;5015425;28;20410;-81
2023/05/10 07:40:28;;;;;;;20.07;16.30;;;17.40;99.90;;;;;;5012913;28;20488;-81
2023/05/10 07:42:54;;;;;;;17.67;15.37;;;17.50;99.90;;;;;;5014017;28;20513;-81
2023/05/10 07:45:20;;;;;;;19.43;15.27;;;17.60;99.90;;;;;;5011838;28;20890;-81
2023/05/10 07:47:46;;;;;;;19.57;15.20;;;17.70;99.90;;;;;;5010419;28;20190;-81
2023/05/10 07:50:11;;;;;;;17.60;14.60;;;17.80;99.90;;;;;;5004009;28;20179;-81
2023/05/10 07:53:00;;;;;;;18.73;15.90;;;17.90;99.90;;;;;;5102331;27;20931;-82
2023/05/10 07:55:26;;;;;;;16.17;14.47;;;17.90;99.90;;;;;;5089304;28;20414;-81
2023/05/10 07:57:51;;;;;;;17.00;13.83;;;17.90;99.90;;;;;;5090004;28;20195;-81
2023/05/10 08:00:18;;;;;;;16.00;13.03;;;17.90;99.90;;;;;;5071441;28;20412;-81
2023/05/10 08:02:44;;;;;;;14.63;13.10;;;17.80;99.90;;;;;;5085225;28;20176;-81
2023/05/10 08:05:10;;;;;;;13.57;12.23;;;17.80;99.90;;;;;;5082637;28;20841;-77
2023/05/10 08:07:36;;;;;;;14.67;12.53;;;17.80;99.90;;;;;;5062011;28;20557;-82
2023/05/10 08:10:03;;;;;;;16.30;13.10;;;17.80;99.90;;;;;;5085846;28;20181;-81
2023/05/10 08:12:28;;;;;;;13.67;12.17;;;17.80;99.90;;;;;;5068998;28;20516;-81
2023/05/10 08:14:54;;;;;;;14.50;12.77;;;17.70;99.90;;;;;;5071530;28;20426;-81
2023/05/10 08:17:20;;;;;;;14.33;12.07;;;17.80;99.90;;;;;;5088283;28;20168;-81
2023/05/10 08:19:45;;;;;;;12.37;11.17;;;17.80;99.90;;;;;;5086223;28;20240;-82
2023/05/10 08:22:11;;;;;;;15.03;11.33;;;17.80;99.90;;;;;;5089400;28;20195;-76
2023/05/10 08:24:38;;;;;;;12.77;11.23;;;17.80;99.90;;;;;;5089682;28;20165;-81
2023/05/10 08:27:05;;;;;;;11.63;10.53;;;17.80;99.90;;;;;;5089568;28;20394;-80
2023/05/10 08:29:31;;;;;;;12.37;11.07;;;17.80;99.90;;;;;;5088954;28;20839;-80
2023/05/10 08:31:57;;;;;;;12.10;10.77;;;17.70;99.90;;;;;;5088728;28;20446;-80
2023/05/10 08:34:23;;;;;;;12.27;10.97;;;17.60;99.90;;;;;;5070664;28;20778;-80
2023/05/10 08:36:49;;;;;;;12.87;11.53;;;17.60;99.90;;;;;;5087749;28;20264;-80
2023/05/10 08:39:14;;;;;;;12.63;11.00;;;17.60;99.90;;;;;;5071283;28;20502;-80
2023/05/10 08:41:44;;;;;;;12.60;11.30;;;17.60;99.90;;;;;;5090039;28;20204;-80
2023/05/10 08:44:10;;;;;;;14.03;12.10;;;17.70;99.90;;;;;;5090343;28;20168;-81
2023/05/10 08:46:43;;;;;;;12.40;11.10;;;17.80;99.90;;;;;;5093972;28;20960;-81
2023/05/10 08:49:17;;;;;;;16.00;11.60;;;17.90;99.90;;;;;;5090512;28;20720;-81
2023/05/10 08:51:49;;;;;;;12.00;10.60;;;18.00;99.90;;;;;;5077357;28;20528;-80
2023/05/10 08:54:15;;;;;;;12.00;10.07;;;18.10;99.90;;;;;;5068344;28;20403;-80
2023/05/10 08:56:41;;;;;;;15.10;12.47;;;18.20;99.90;;;;;;5068818;28;20404;-80
2023/05/10 08:59:07;;;;;;;13.20;11.90;;;18.40;99.90;;;;;;5069062;28;20565;-80
2023/05/10 09:01:36;;;;;;;11.90;10.70;;;18.60;99.90;;;;;;5068988;28;20177;-80
2023/05/10 09:04:04;;;;;;;11.10;10.03;;;18.70;99.90;;;;;;5057280;28;20662;-81
2023/05/10 09:06:29;;;;;;;11.57;10.47;;;18.90;99.90;;;;;;5054816;28;20750;-80
2023/05/10 09:08:55;;;;;;;11.83;9.90;;;19.10;99.90;;;;;;5037621;28;20507;-80
2023/05/10 09:11:21;;;;;;;11.60;10.03;;;19.20;99.90;;;;;;5054974;28;20190;-80
2023/05/10 09:13:50;;;;;;;10.03;9.13;;;19.40;99.90;;;;;;5055241;28;20795;-80
2023/05/10 09:16:16;;;;;;;10.70;9.60;;;19.70;99.90;;;;;;5036726;28;20935;-80
2023/05/10 09:18:42;;;;;;;10.20;9.27;;;19.90;99.90;;;;;;5055381;28;20392;-80
2023/05/10 09:21:09;;;;;;;10.30;9.23;;;20.00;99.90;;;;;;5053903;28;20197;-80
2023/05/10 09:23:35;;;;;;;11.63;10.73;;;20.00;99.90;;;;;;5054012;28;20420;-80
2023/05/10 09:26:07;;;;;;;9.87;8.97;;;20.00;99.90;;;;;;5037319;28;20410;-81
2023/05/10 09:28:33;;;;;;;11.57;10.47;;;19.90;99.90;;;;;;5054404;28;20618;-80
2023/05/10 09:30:59;;;;;;;12.40;11.20;;;19.80;99.90;;;;;;5054700;28;20919;-80
2023/05/10 09:33:25;;;;;;;12.00;10.90;;;19.60;99.90;;;;;;5054354;28;20411;-80
2023/05/10 09:35:52;;;;;;;12.57;11.40;;;19.50;99.90;;;;;;5055274;28;20613;-81
2023/05/10 09:38:18;;;;;;;9.70;8.80;;;19.20;99.90;;;;;;5054358;28;20166;-80
2023/05/10 09:40:54;;;;;;;12.50;11.40;;;19.10;99.90;;;;;;5054782;28;20408;-80
2023/05/10 09:43:20;;;;;;;10.30;9.40;;;19.10;99.90;;;;;;5054355;28;20153;-80
2023/05/10 09:45:50;;;;;;;9.13;8.00;;;19.00;99.90;;;;;;5054806;28;20887;-81
2023/05/10 09:48:16;;;;;;;8.57;7.77;;;18.90;99.90;;;;;;5054393;28;20397;-76
2023/05/10 09:50:42;;;;;;;8.73;7.60;;;19.00;99.90;;;;;;5053563;28;20428;-81
2023/05/10 09:53:08;;;;;;;7.70;7.10;;;19.20;99.90;;;;;;5054755;28;20178;-81
2023/05/10 09:55:44;;;;;;;7.73;7.03;;;19.30;99.90;;;;;;5053846;28;20432;-81
2023/05/10 09:58:11;;;;;;;7.13;6.63;;;19.50;99.90;;;;;;5054630;28;20170;-81
2023/05/10 10:00:38;;;;;;;8.60;7.90;;;19.70;99.90;;;;;;5036358;28;21012;-80
2023/05/10 10:03:05;;;;;;;8.23;7.53;;;19.80;99.90;;;;;;5054553;28;20401;-81
2023/05/10 10:05:32;;;;;;;8.70;7.80;;;19.90;99.90;;;;;;5054042;28;20447;-81
2023/05/10 10:07:58;;;;;;;8.33;7.57;;;20.10;99.90;;;;;;5054485;28;20424;-80
2023/05/10 10:10:25;;;;;;;7.87;7.13;;;20.10;99.90;;;;;;5049533;28;20420;-80
2023/05/10 10:12:52;;;;;;;8.47;7.67;;;20.30;99.90;;;;;;5039983;28;20453;-81
2023/05/10 10:15:18;;;;;;;7.53;6.93;;;20.40;99.90;;;;;;5032983;28;20791;-76
2023/05/10 10:17:45;;;;;;;8.53;7.77;;;20.30;99.90;;;;;;5034098;28;20764;-80
2023/05/10 10:20:11;;;;;;;8.43;7.40;;;20.20;99.90;;;;;;5034642;28;20401;-81
2023/05/10 10:22:37;;;;;;;11.73;10.83;;;20.10;99.90;;;;;;5037956;28;20566;-80
2023/05/10 10:25:05;;;;;;;9.30;8.60;;;19.90;99.90;;;;;;5053270;28;20434;-80
2023/05/10 10:27:52;;;;;;;11.83;10.93;;;19.80;99.90;;;;;;5053713;28;20404;-81
2023/05/10 10:30:45;;;;;;;8.90;8.10;;;19.70;99.90;;;;;;5053636;28;20899;-80
2023/05/10 10:33:23;;;;;;;10.00;9.10;;;19.50;99.90;;;;;;5053951;28;20973;-80
2023/05/10 10:35:50;;;;;;;8.83;8.03;;;19.40;99.90;;;;;;5035659;28;20499;-80
2023/05/10 10:38:17;;;;;;;8.47;7.70;;;19.30;99.90;;;;;;5053397;28;20793;-81
2023/05/10 10:40:43;;;;;;;10.77;9.80;;;19.20;99.90;;;;;;5052672;28;20451;-80
2023/05/10 10:43:26;;;;;;;10.40;9.43;;;19.30;99.90;;;;;;5053527;28;20416;-80
2023/05/10 10:46:14;;;;;;;8.90;8.00;;;19.40;99.90;;;;;;5053583;28;20174;-80
2023/05/10 10:49:10;;;;;;;9.70;8.20;;;19.50;99.90;;;;;;5034950;28;20926;-80
2023/05/10 10:51:39;;;;;;;9.90;9.00;;;19.60;99.90;;;;;;5031728;28;20492;-80
2023/05/10 10:54:10;;;;;;;10.20;9.07;;;19.70;99.90;;;;;;5053385;28;20446;-80
2023/05/10 10:56:35;;;;;;;12.40;11.30;;;19.70;99.90;;;;;;5053045;28;20442;-80
2023/05/10 10:59:01;;;;;;;12.10;9.63;;;19.60;99.90;;;;;;5035889;28;20814;-80
2023/05/10 11:01:35;;;;;;;16.30;14.63;;;19.50;99.90;;;;;;5052573;28;20177;-80
2023/05/10 11:04:04;;;;;;;17.03;13.77;;;19.30;99.90;;;;;;5053279;28;20249;-80
2023/05/10 11:06:36;;;;;;;18.67;13.77;;;19.10;99.90;;;;;;5052504;28;20404;-80
2023/05/10 11:09:11;;;;;;;19.30;17.40;;;18.90;99.90;;;;;;5053204;28;20412;-80
2023/05/10 11:11:49;;;;;;;15.33;13.57;;;18.70;99.90;;;;;;5052372;28;20439;-80
2023/05/10 11:14:21;;;;;;;17.17;14.33;;;18.70;99.90;;;;;;5053020;28;20733;-80
2023/05/10 11:16:47;;;;;;;18.97;16.47;;;18.60;99.90;;;;;;5053101;28;20399;-80
2023/05/10 11:19:14;;;;;;;14.70;13.10;;;18.40;99.90;;;;;;5042896;28;20420;-80
2023/05/10 11:22:04;;;;;;;14.50;12.63;;;18.40;99.90;;;;;;5032562;28;20183;-81
2023/05/10 11:24:30;;;;;;;15.83;12.70;;;18.40;99.90;;;;;;5032497;28;20411;-80
2023/05/10 11:26:56;;;;;;;14.40;12.90;;;18.40;99.90;;;;;;5032384;28;20500;-80
2023/05/10 11:29:22;;;;;;;16.17;12.40;;;18.40;99.90;;;;;;5032132;28;20407;-76
2023/05/10 11:31:49;;;;;;;14.70;12.73;;;18.40;99.90;;;;;;5032644;28;20461;-80
2023/05/10 11:34:30;;;;;;;12.97;11.43;;;18.40;99.90;;;;;;5032487;28;20401;-81
2023/05/10 11:36:56;;;;;;;11.40;10.33;;;18.50;99.90;;;;;;5032789;28;20439;-80
2023/05/10 11:39:33;;;;;;;9.97;9.00;;;18.60;99.90;;;;;;5032793;28;20408;-75
2023/05/10 11:41:59;;;;;;;10.00;9.10;;;18.70;99.90;;;;;;5032599;28;20495;-80
2023/05/10 11:44:32;;;;;;;10.30;9.30;;;18.80;99.90;;;;;;5031695;28;20406;-76
2023/05/10 11:47:00;;;;;;;10.97;9.00;;;18.80;99.90;;;;;;5032968;28;20405;-81
2023/05/10 11:49:26;;;;;;;10.47;9.37;;;19.00;99.90;;;;;;5043237;28;20420;-81
2023/05/10 11:51:51;;;;;;;11.13;10.03;;;19.10;99.90;;;;;;5052162;28;20567;-80
2023/05/10 11:54:17;;;;;;;10.83;9.10;;;19.20;99.90;;;;;;5052805;28;20554;-81
2023/05/10 11:56:44;;;;;;;11.57;9.50;;;19.30;99.90;;;;;;5052167;28;20181;-80
2023/05/10 11:59:10;;;;;;;11.07;10.07;;;19.20;99.90;;;;;;5053171;28;20170;-80
2023/05/10 12:01:36;;;;;;;11.73;10.27;;;19.20;99.90;;;;;;5051683;28;20415;-80
2023/05/10 12:04:02;;;;;;;12.50;11.20;;;19.20;99.90;;;;;;5052403;28;20173;-80
2023/05/10 12:06:30;;;;;;;14.23;13.07;;;19.20;99.90;;;;;;5033891;28;20423;-80
2023/05/10 12:08:57;;;;;;;13.17;12.07;;;19.10;99.90;;;;;;5052867;28;20914;-80
2023/05/10 12:11:28;;;;;;;11.43;10.23;;;19.00;99.90;;;;;;5050780;28;20470;-80
2023/05/10 12:13:54;;;;;;;13.83;12.40;;;18.90;99.90;;;;;;5051274;28;20954;-80
2023/05/10 12:16:23;;;;;;;13.97;12.63;;;18.90;99.90;;;;;;5052241;28;20470;-80
2023/05/10 12:18:53;;;;;;;11.80;9.87;;;18.90;99.90;;;;;;5051760;28;20412;-81
2023/05/10 12:21:20;;;;;;;13.33;11.50;;;18.90;99.90;;;;;;5052430;28;20430;-80
2023/05/10 12:23:48;;;;;;;10.90;9.90;;;18.90;99.90;;;;;;5033966;28;20420;-80
2023/05/10 12:26:14;;;;;;;10.27;9.20;;;18.90;99.90;;;;;;5034346;28;20431;-80
2023/05/10 12:28:40;;;;;;;11.43;10.43;;;18.80;99.90;;;;;;5051468;28;20415;-80
2023/05/10 12:31:07;;;;;;;11.23;9.50;;;18.90;99.90;;;;;;5052084;28;20447;-81
2023/05/10 12:33:45;;;;;;;10.53;9.43;;;19.00;99.90;;;;;;5051418;28;20162;-80
2023/05/10 12:36:12;;;;;;;9.27;8.40;;;19.00;99.90;;;;;;5052147;28;20508;-80
2023/05/10 12:38:42;;;;;;;8.87;8.07;;;19.10;99.90;;;;;;5053388;28;20822;-80
2023/05/10 12:41:13;;;;;;;8.97;8.07;;;19.20;99.90;;;;;;5054035;28;20456;-80